Time;durP1;ratioP1;P1;durP2;ratioP2;P2;SDS_P1;SDS_P2;PMS_P1;PMS_P2;Temp;Humidity;BMP_temperature;BMP_pressure;BME280_temperature;BME280_humidity;BME280_pressure;Samples;Min_cycle;Max_cycle;Signal;HPM_P1;HPM_P2
2023/02/19 00:00:54;;;;;;;22.95;7.00;;;;;;;5.35;91.65;93462.66;5069294;28;19920;-70
2023/02/19 00:03:21;;;;;;;14.82;6.75;;;;;;;5.37;91.27;93459.94;5065650;28;20423;-70
2023/02/19 00:05:49;;;;;;;15.50;6.70;;;;;;;5.38;91.62;93456.44;5067600;28;20048;-70
2023/02/19 00:08:16;;;;;;;20.45;9.27;;;;;;;5.39;92.38;93450.38;5069312;28;20452;-71
2023/02/19 00:10:42;;;;;;;21.08;8.77;;;;;;;5.35;92.46;93452.47;5069149;28;20094;-70
2023/02/19 00:13:09;;;;;;;20.35;7.70;;;;;;;5.34;92.62;93449.13;5069054;28;20059;-70
2023/02/19 00:15:36;;;;;;;20.90;7.57;;;;;;;5.34;92.21;93443.25;5069332;28;20118;-70
2023/02/19 00:18:02;;;;;;;22.33;8.75;;;;;;;5.32;92.30;93451.06;5066270;28;20040;-70
2023/02/19 00:20:29;;;;;;;24.15;9.88;;;;;;;5.30;92.20;93445.34;5067378;28;20037;-71
2023/02/19 00:22:57;;;;;;;21.67;10.32;;;;;;;5.27;92.72;93448.22;5068868;28;20086;-70
2023/02/19 00:25:24;;;;;;;26.23;9.55;;;;;;;5.27;92.59;93443.13;5069099;28;20094;-70
2023/02/19 00:27:50;;;;;;;20.30;8.57;;;;;;;5.24;93.69;93440.13;5069103;28;20041;-70
2023/02/19 00:30:17;;;;;;;17.55;9.00;;;;;;;5.15;92.91;93437.66;5068865;28;20086;-70
2023/02/19 00:32:44;;;;;;;22.75;8.68;;;;;;;5.15;94.46;93435.13;5069113;28;20048;-71
2023/02/19 00:35:11;;;;;;;20.95;8.43;;;;;;;5.11;95.04;93428.78;5067922;28;20040;-70
2023/02/19 00:37:37;;;;;;;27.02;10.88;;;;;;;5.11;95.53;93420.34;5068790;28;20122;-69
2023/02/19 00:40:06;;;;;;;21.23;8.43;;;;;;;5.08;94.84;93416.38;5068877;28;20044;-70
2023/02/19 00:42:33;;;;;;;20.75;8.30;;;;;;;5.05;95.41;93421.81;5068521;28;20071;-71
2023/02/19 00:45:00;;;;;;;21.65;7.82;;;;;;;5.02;95.17;93419.59;5068530;28;20500;-70
2023/02/19 00:47:26;;;;;;;21.17;8.35;;;;;;;4.95;95.66;93415.19;5068813;28;20044;-70
2023/02/19 00:49:53;;;;;;;20.52;8.43;;;;;;;4.98;95.30;93420.91;5068941;28;20044;-70
2023/02/19 00:52:23;;;;;;;20.60;8.30;;;;;;;4.92;95.75;93414.75;5068383;28;20090;-70
2023/02/19 00:54:49;;;;;;;19.05;8.30;;;;;;;4.84;97.13;93422.41;5068444;28;20044;-70
2023/02/19 00:57:17;;;;;;;18.70;7.35;;;;;;;4.82;97.32;93412.44;5068494;28;20479;-70
2023/02/19 00:59:44;;;;;;;16.23;6.82;;;;;;;4.79;97.77;93426.28;5068264;28;20098;-71
2023/02/19 01:02:11;;;;;;;18.42;7.22;;;;;;;4.78;97.48;93416.25;5068507;28;20041;-70
2023/02/19 01:04:41;;;;;;;19.42;7.50;;;;;;;4.79;97.71;93416.09;5068684;28;20402;-70
2023/02/19 01:07:07;;;;;;;20.35;7.47;;;;;;;4.79;97.26;93405.94;5068656;28;20048;-71
2023/02/19 01:09:34;;;;;;;18.02;7.45;;;;;;;4.77;97.85;93409.59;5068513;28;20040;-70
2023/02/19 01:12:01;;;;;;;20.92;8.15;;;;;;;4.75;98.61;93414.03;5068240;28;20501;-70
2023/02/19 01:14:29;;;;;;;19.35;8.75;;;;;;;4.74;98.50;93420.91;5063314;28;20045;-70
2023/02/19 01:16:55;;;;;;;17.10;8.23;;;;;;;4.70;98.47;93404.38;5068438;28;20040;-70
2023/02/19 01:19:25;;;;;;;16.48;8.25;;;;;;;4.84;97.43;93420.69;5068377;28;20048;-71
2023/02/19 01:21:52;;;;;;;15.27;7.97;;;;;;;4.86;97.03;93413.66;5068560;28;20041;-71
2023/02/19 01:24:19;;;;;;;16.20;8.25;;;;;;;4.86;97.04;93412.88;5068312;28;20049;-71
2023/02/19 01:26:45;;;;;;;17.20;8.25;;;;;;;4.75;96.70;93396.22;5068134;28;20086;-70
2023/02/19 01:29:12;;;;;;;18.10;8.05;;;;;;;4.90;97.44;93411.56;5068191;28;20493;-70
2023/02/19 01:31:40;;;;;;;17.13;8.20;;;;;;;4.91;97.23;93413.16;5068001;28;20045;-70
2023/02/19 01:34:10;;;;;;;13.90;7.80;;;;;;;4.86;97.39;93413.66;5068463;28;20044;-70
2023/02/19 01:36:37;;;;;;;15.40;8.02;;;;;;;4.85;97.36;93412.06;5068029;28;20057;-70
2023/02/19 01:39:06;;;;;;;19.75;8.57;;;;;;;4.83;97.49;93406.38;5068195;28;20481;-70
2023/02/19 01:41:36;;;;;;;15.98;8.20;;;;;;;4.87;96.80;93417.00;5068068;28;20045;-70
2023/02/19 01:44:06;;;;;;;17.95;8.02;;;;;;;4.79;96.83;93413.56;5068025;28;20447;-70
2023/02/19 01:46:34;;;;;;;18.40;9.23;;;;;;;4.76;97.82;93423.25;5070399;28;20076;-70
2023/02/19 01:49:06;;;;;;;16.95;8.20;;;;;;;4.63;98.44;93416.19;5071760;28;20654;-70
2023/02/19 01:51:36;;;;;;;28.65;13.68;;;;;;;4.45;99.96;93403.72;5071713;28;20040;-70
2023/02/19 01:54:05;;;;;;;18.70;9.45;;;;;;;4.35;100.00;93439.53;5071394;28;20642;-70
2023/02/19 01:56:34;;;;;;;17.42;9.30;;;;;;;4.10;100.00;93442.97;5071818;28;20044;-70
2023/02/19 01:59:02;;;;;;;21.23;16.13;;;;;;;4.00;100.00;93450.78;5071905;28;20074;-70
2023/02/19 02:01:29;;;;;;;18.35;8.65;;;;;;;4.11;100.00;93447.09;5071869;28;20044;-70
2023/02/19 02:03:56;;;;;;;16.08;9.48;;;;;;;4.16;100.00;93445.81;5071576;28;20094;-70
2023/02/19 02:06:26;;;;;;;29.40;14.70;;;;;;;4.09;100.00;93443.91;5071537;28;20052;-70
2023/02/19 02:11:44;;;;;;;28.80;15.07;;;;;;;3.99;100.00;93451.72;5071284;28;20063;-70
2023/02/19 02:14:11;;;;;;;39.60;22.33;;;;;;;3.57;100.00;93445.13;5071667;28;20051;-70
2023/02/19 02:16:47;;;;;;;42.65;23.35;;;;;;;3.47;100.00;93442.75;5071629;28;20119;-70
2023/02/19 02:19:32;;;;;;;49.88;24.55;;;;;;;3.50;100.00;93442.44;5071552;28;20037;-70
2023/02/19 02:22:07;;;;;;;43.53;24.10;;;;;;;3.33;100.00;93447.53;5071555;28;20110;-71
2023/02/19 02:24:59;;;;;;;43.40;24.40;;;;;;;3.17;100.00;93448.31;5071309;28;20074;-70
2023/02/19 02:27:39;;;;;;;46.38;25.65;;;;;;;3.13;100.00;93454.66;5071466;28;20515;-70
2023/02/19 02:30:30;;;;;;;47.70;26.38;;;;;;;3.15;100.00;93449.44;5071411;28;20097;-70
2023/02/19 02:33:04;;;;;;;49.45;28.23;;;;;;;3.07;100.00;93447.69;5071471;28;20040;-70
2023/02/19 02:35:39;;;;;;;83.38;40.63;;;;;;;3.03;100.00;93449.75;5071476;28;20044;-70
2023/02/19 02:38:11;;;;;;;62.65;31.27;;;;;;;2.89;100.00;93446.06;5071056;28;20071;-70
2023/02/19 02:40:42;;;;;;;58.35;28.73;;;;;;;2.78;100.00;93453.97;5071311;28;20052;-70
2023/02/19 02:43:09;;;;;;;57.67;29.00;;;;;;;2.59;100.00;93437.28;5066162;28;20098;-70
2023/02/19 02:45:38;;;;;;;60.75;31.05;;;;;;;2.65;100.00;93454.41;5071214;28;20098;-70
2023/02/19 02:48:26;;;;;;;59.42;32.20;;;;;;;2.59;100.00;93457.56;5071080;28;20068;-70
2023/02/19 02:50:57;;;;;;;51.70;27.15;;;;;;;2.63;100.00;93459.66;5071204;28;20044;-71
2023/02/19 02:56:15;;;;;;;47.17;25.50;;;;;;;2.70;100.00;93456.47;5070806;28;20044;-71
2023/02/19 02:58:43;;;;;;;51.03;28.17;;;;;;;2.80;100.00;93454.63;5069481;28;20048;-70
2023/02/19 03:04:03;;;;;;;59.63;35.20;;;;;;;2.72;100.00;93462.22;5070450;28;20102;-71
2023/02/19 03:06:34;;;;;;;55.45;33.80;;;;;;;2.76;100.00;93461.75;5070945;28;20041;-70
2023/02/19 03:09:09;;;;;;;50.15;29.33;;;;;;;2.81;100.00;93456.19;5070308;28;20493;-71
2023/02/19 03:20:08;;;;;;;34.83;20.73;;;;;;;2.77;100.00;93453.19;5070143;28;20059;-71
2023/02/19 03:22:37;;;;;;;24.80;16.05;;;;;;;2.84;100.00;93471.13;5066746;28;20091;-71
2023/02/19 03:27:56;;;;;;;28.00;15.77;;;;;;;2.76;100.00;93471.09;5070358;28;20052;-70
2023/02/19 03:30:29;;;;;;;27.63;15.93;;;;;;;2.77;100.00;93483.63;5070015;28;20052;-70
2023/02/19 03:33:07;;;;;;;28.00;14.88;;;;;;;2.69;100.00;93483.63;5070113;28;20497;-71
2023/02/19 03:35:37;;;;;;;27.40;14.45;;;;;;;2.72;100.00;93478.22;5066682;28;20460;-70
2023/02/19 03:38:09;;;;;;;25.70;13.02;;;;;;;2.71;100.00;93476.63;5069820;28;21044;-71
2023/02/19 03:40:47;;;;;;;23.00;13.85;;;;;;;2.59;100.00;93488.78;5070208;28;20045;-70
2023/02/19 03:43:19;;;;;;;21.83;13.82;;;;;;;2.32;100.00;93489.81;5069909;28;20041;-71
2023/02/19 03:45:56;;;;;;;27.23;14.70;;;;;;;2.22;100.00;93497.53;5069940;28;20106;-70
2023/02/19 03:48:31;;;;;;;32.83;18.20;;;;;;;2.22;100.00;93489.94;5069499;28;20053;-70
2023/02/19 03:51:08;;;;;;;37.93;20.33;;;;;;;2.14;100.00;93486.38;5069926;28;20087;-70
2023/02/19 03:53:43;;;;;;;38.78;19.15;;;;;;;2.12;100.00;93488.28;5069630;28;20490;-70
2023/02/19 03:56:15;;;;;;;31.52;18.67;;;;;;;2.14;100.00;93485.59;5069920;28;20044;-70
2023/02/19 03:58:50;;;;;;;32.38;19.00;;;;;;;2.22;100.00;93488.16;5069417;28;20083;-71
2023/02/19 04:01:24;;;;;;;33.90;17.48;;;;;;;2.29;100.00;93495.16;5069536;28;20037;-70
2023/02/19 04:03:58;;;;;;;42.78;20.50;;;;;;;2.24;100.00;93491.38;5069733;28;20439;-70
2023/02/19 04:06:28;;;;;;;42.85;22.10;;;;;;;2.16;100.00;93498.91;5069739;28;20390;-70
2023/02/19 04:08:58;;;;;;;39.15;19.52;;;;;;;2.14;100.00;93499.06;5069199;28;20086;-70
2023/02/19 04:11:27;;;;;;;35.08;20.38;;;;;;;2.05;100.00;93506.78;5069590;28;20044;-70
2023/02/19 04:13:58;;;;;;;48.00;23.33;;;;;;;1.93;100.00;93491.81;5069145;28;20082;-70
2023/02/19 04:16:28;;;;;;;41.60;22.60;;;;;;;2.05;100.00;93507.59;5069421;28;20618;-70
2023/02/19 04:19:02;;;;;;;46.58;23.98;;;;;;;1.97;100.00;93502.44;5069374;28;20052;-70
2023/02/19 04:21:31;;;;;;;49.20;28.65;;;;;;;1.89;100.00;93510.00;5064180;28;20082;-70
2023/02/19 04:24:03;;;;;;;47.65;24.98;;;;;;;1.87;100.00;93508.41;5069148;28;20580;-70
2023/02/19 04:26:31;;;;;;;43.80;24.25;;;;;;;1.90;100.00;93514.13;5069354;28;20382;-70
2023/02/19 04:28:58;;;;;;;45.88;24.92;;;;;;;1.60;100.00;93527.06;5068988;28;20048;-70
2023/02/19 04:31:27;;;;;;;45.10;24.25;;;;;;;1.60;100.00;93517.75;5069210;28;20451;-70
2023/02/19 04:33:56;;;;;;;45.45;23.55;;;;;;;1.65;100.00;93514.75;5069158;28;20090;-70
2023/02/19 04:36:22;;;;;;;41.05;21.85;;;;;;;1.69;100.00;93515.25;5068806;28;20719;-70
2023/02/19 04:38:49;;;;;;;42.75;20.92;;;;;;;1.67;100.00;93519.69;5069036;28;20055;-70
2023/02/19 04:41:16;;;;;;;37.10;19.63;;;;;;;1.68;100.00;93524.59;5068760;28;20053;-70
2023/02/19 04:43:42;;;;;;;38.20;21.13;;;;;;;1.58;100.00;93519.59;5068886;28;20102;-70
2023/02/19 04:46:09;;;;;;;38.40;17.90;;;;;;;1.55;100.00;93531.75;5069187;28;20037;-70
2023/02/19 04:48:36;;;;;;;35.15;18.55;;;;;;;1.57;100.00;93534.97;5069308;28;20509;-70
2023/02/19 04:51:06;;;;;;;38.45;20.50;;;;;;;1.53;100.00;93531.13;5068765;28;20118;-70
2023/02/19 04:53:33;;;;;;;42.35;22.58;;;;;;;1.55;100.00;93536.81;5069255;28;20040;-70
2023/02/19 04:56:08;;;;;;;41.53;24.23;;;;;;;1.38;100.00;93523.25;5063149;28;20044;-70
2023/02/19 04:58:35;;;;;;;52.95;27.73;;;;;;;1.49;100.00;93537.41;5058529;28;20158;-70
2023/02/19 05:01:02;;;;;;;87.07;38.45;;;;;;;1.44;100.00;93535.31;5068215;28;20067;-69
2023/02/19 05:03:29;;;;;;;66.07;34.90;;;;;;;1.40;100.00;93539.09;5068781;28;20041;-70
2023/02/19 05:05:56;;;;;;;86.00;41.45;;;;;;;1.41;100.00;93528.81;5068683;28;20094;-70
2023/02/19 05:08:24;;;;;;;69.25;36.25;;;;;;;1.05;100.00;93488.31;5068243;28;20534;-70
2023/02/19 05:10:51;;;;;;;112.55;44.67;;;;;;;1.43;100.00;93533.75;5068358;28;20041;-70
2023/02/19 05:13:17;;;;;;;225.93;73.03;;;;;;;1.44;100.00;93541.16;5068331;28;20049;-71
2023/02/19 05:15:54;;;;;;;114.55;45.70;;;;;;;1.50;100.00;93551.66;5066944;28;20049;-71
2023/02/19 05:18:21;;;;;;;80.82;39.05;;;;;;;1.50;100.00;93544.06;5068254;28;20505;-71
2023/02/19 05:20:48;;;;;;;63.70;33.05;;;;;;;1.48;100.00;93553.53;5069119;28;20044;-70
2023/02/19 05:23:14;;;;;;;55.75;30.52;;;;;;;1.50;100.00;93556.72;5072534;28;20449;-70
2023/02/19 05:25:42;;;;;;;53.72;29.95;;;;;;;1.51;100.00;93548.19;5072734;28;20052;-71
2023/02/19 05:28:18;;;;;;;48.13;28.42;;;;;;;1.52;100.00;93552.31;5061152;28;20460;-70
2023/02/19 05:30:46;;;;;;;50.33;26.92;;;;;;;1.50;100.00;93557.53;5053077;28;20059;-70
2023/02/19 05:33:13;;;;;;;39.05;22.75;;;;;;;1.52;100.00;93560.69;5058143;28;20094;-70
2023/02/19 05:35:41;;;;;;;34.10;19.80;;;;;;;1.52;100.00;93555.63;5069803;28;20052;-71
2023/02/19 05:38:08;;;;;;;29.85;18.55;;;;;;;1.55;100.00;93554.56;5068537;28;20045;-70
2023/02/19 05:40:35;;;;;;;28.60;17.33;;;;;;;1.23;100.00;93503.50;5072863;28;20048;-70
2023/02/19 05:43:03;;;;;;;32.58;16.77;;;;;;;1.60;100.00;93557.44;5072635;28;20102;-70
2023/02/19 05:45:30;;;;;;;29.88;16.27;;;;;;;1.52;100.00;93540.44;5072165;28;20049;-70
2023/02/19 05:47:57;;;;;;;26.77;16.35;;;;;;;1.57;100.00;93555.22;5072687;28;20444;-71
2023/02/19 05:50:23;;;;;;;24.17;14.48;;;;;;;1.69;100.00;93561.63;5072243;28;20524;-70
2023/02/19 05:52:50;;;;;;;24.10;13.25;;;;;;;1.75;100.00;93570.38;5072455;28;20435;-70
2023/02/19 05:55:17;;;;;;;22.70;12.27;;;;;;;1.78;100.00;93567.56;5072272;28;20044;-70
2023/02/19 05:57:45;;;;;;;27.08;14.68;;;;;;;1.76;100.00;93577.03;5071734;28;20045;-70
2023/02/19 06:00:16;;;;;;;30.05;14.45;;;;;;;1.80;100.00;93583.41;5072267;28;20547;-70
2023/02/19 06:02:42;;;;;;;33.80;18.08;;;;;;;1.83;100.00;93577.25;5059199;28;20048;-70
2023/02/19 06:05:10;;;;;;;26.30;16.25;;;;;;;1.93;100.00;93577.16;5065769;28;20129;-70
2023/02/19 06:07:38;;;;;;;40.75;21.90;;;;;;;1.97;100.00;93581.78;5072398;28;20048;-70
2023/02/19 06:10:05;;;;;;;35.08;21.73;;;;;;;2.03;100.00;93580.41;5071836;28;20080;-70
2023/02/19 06:12:32;;;;;;;35.85;21.77;;;;;;;2.15;100.00;93580.97;5072031;28;20440;-70
2023/02/19 06:14:59;;;;;;;41.70;24.38;;;;;;;2.21;100.00;93575.28;5071386;28;20939;-70
2023/02/19 06:17:27;;;;;;;46.15;27.20;;;;;;;2.28;100.00;93585.66;5069229;28;20041;-70
2023/02/19 06:19:54;;;;;;;39.05;22.67;;;;;;;2.16;100.00;93586.84;5069872;28;20052;-70
2023/02/19 06:22:20;;;;;;;42.55;25.02;;;;;;;1.91;100.00;93589.19;5071507;28;20037;-71
2023/02/19 06:24:47;;;;;;;41.08;25.05;;;;;;;1.86;100.00;93587.88;5071366;28;20504;-70
2023/02/19 06:27:14;;;;;;;43.90;26.35;;;;;;;1.85;100.00;93581.22;5071651;28;20086;-70
2023/02/19 06:29:41;;;;;;;48.45;28.13;;;;;;;2.05;100.00;93591.19;5063207;28;20082;-70
2023/02/19 06:32:08;;;;;;;49.78;31.67;;;;;;;2.10;100.00;93589.03;5069172;28;20048;-70
2023/02/19 06:34:36;;;;;;;52.88;30.27;;;;;;;2.20;100.00;93578.78;5071528;28;20048;-70
2023/02/19 06:37:03;;;;;;;50.95;31.38;;;;;;;2.37;100.00;93587.25;5056652;28;20171;-71
2023/02/19 06:39:30;;;;;;;56.35;32.67;;;;;;;2.47;100.00;93586.38;5064038;28;20102;-70
2023/02/19 06:41:57;;;;;;;55.38;33.80;;;;;;;2.57;100.00;93587.06;5071633;28;20044;-70
2023/02/19 06:44:24;;;;;;;51.50;31.73;;;;;;;2.66;100.00;93581.09;5071348;28;20048;-70
2023/02/19 06:46:54;;;;;;;49.65;30.35;;;;;;;2.76;100.00;93587.78;5071359;28;20044;-70
2023/02/19 06:49:20;;;;;;;51.50;30.92;;;;;;;2.86;100.00;93583.38;5071363;28;20048;-70
2023/02/19 06:51:48;;;;;;;55.95;34.33;;;;;;;2.95;100.00;93591.81;5071332;28;20052;-70
2023/02/19 06:54:15;;;;;;;66.47;39.30;;;;;;;3.06;100.00;93591.53;5071363;28;20049;-70
2023/02/19 06:56:42;;;;;;;75.95;44.33;;;;;;;3.16;100.00;93590.63;5064222;28;20045;-70
2023/02/19 06:59:12;;;;;;;60.92;36.65;;;;;;;3.19;100.00;93586.03;5065125;28;20451;-70
2023/02/19 07:01:39;;;;;;;64.43;35.17;;;;;;;3.25;100.00;93579.56;5071478;28;20049;-70
2023/02/19 07:04:07;;;;;;;53.83;33.08;;;;;;;3.39;100.00;93582.44;5071097;28;20463;-70
2023/02/19 07:06:35;;;;;;;69.03;40.75;;;;;;;3.44;100.00;93581.03;5071108;28;20048;-70
2023/02/19 07:09:05;;;;;;;83.13;51.95;;;;;;;3.59;100.00;93580.38;5070594;28;20493;-70
2023/02/19 07:11:33;;;;;;;87.15;54.45;;;;;;;3.74;100.00;93578.00;5071447;28;20045;-70
2023/02/19 07:14:02;;;;;;;84.03;47.47;;;;;;;3.93;100.00;93583.75;5070647;28;20053;-70
2023/02/19 07:16:29;;;;;;;69.75;40.15;;;;;;;4.13;100.00;93579.91;5071286;28;20090;-70
2023/02/19 07:18:57;;;;;;;97.35;54.47;;;;;;;4.32;100.00;93572.09;5070448;28;20052;-71
2023/02/19 07:21:24;;;;;;;107.70;57.47;;;;;;;4.50;100.00;93572.69;5070569;28;20051;-70
2023/02/19 07:23:51;;;;;;;96.50;54.30;;;;;;;4.72;100.00;93579.81;5068245;28;20097;-70
2023/02/19 07:26:20;;;;;;;78.38;45.17;;;;;;;4.88;100.00;93563.66;5071011;28;20114;-70
2023/02/19 07:28:49;;;;;;;61.65;32.88;;;;;;;5.14;100.00;93582.97;5069596;28;20098;-70
2023/02/19 07:31:17;;;;;;;42.95;22.88;;;;;;;5.16;100.00;93565.78;5060080;28;20048;-70
2023/02/19 07:33:44;;;;;;;51.90;28.05;;;;;;;5.41;100.00;93579.16;5070108;28;20101;-70
2023/02/19 07:36:12;;;;;;;30.85;17.58;;;;;;;5.55;100.00;93571.78;5062702;28;20489;-70
2023/02/19 07:38:39;;;;;;;41.67;23.30;;;;;;;5.79;100.00;93577.66;5068456;28;20052;-70
2023/02/19 07:41:07;;;;;;;49.72;26.67;;;;;;;5.94;100.00;93570.84;5070675;28;20098;-71
2023/02/19 07:43:36;;;;;;;44.20;24.55;;;;;;;6.11;100.00;93566.44;5069920;28;20396;-70
2023/02/19 07:46:03;;;;;;;32.83;19.02;;;;;;;6.38;95.00;93579.56;5070178;28;20048;-71
2023/02/19 07:48:30;;;;;;;89.75;42.70;;;;;;;6.59;91.75;93578.09;5069927;28;20049;-70
2023/02/19 07:50:59;;;;;;;56.65;30.83;;;;;;;6.68;95.96;93569.38;5070527;28;20094;-70
2023/02/19 07:53:27;;;;;;;47.88;26.70;;;;;;;6.61;89.75;93542.97;5069347;28;20044;-70
2023/02/19 07:55:58;;;;;;;37.60;22.40;;;;;;;7.07;87.93;93571.81;5068750;28;20466;-70
2023/02/19 07:58:25;;;;;;;38.63;22.08;;;;;;;7.30;87.21;93579.34;5069932;28;20393;-70
2023/02/19 08:00:53;;;;;;;38.03;23.27;;;;;;;7.51;88.09;93574.44;5069410;28;20095;-70
2023/02/19 08:03:20;;;;;;;39.45;22.20;;;;;;;7.78;90.74;93562.69;5066245;28;20040;-71
2023/02/19 08:05:48;;;;;;;57.40;33.42;;;;;;;8.13;89.91;93562.81;5069243;28;20049;-70
2023/02/19 08:08:16;;;;;;;48.92;27.30;;;;;;;8.43;91.76;93554.16;5069047;28;20151;-71
2023/02/19 08:13:29;;;;;;;75.15;40.95;;;;;;;8.93;84.08;93523.28;5068297;28;20063;-71
2023/02/19 08:16:12;;;;;;;104.72;57.20;;;;;;;9.42;84.53;93560.91;5069151;28;20449;-72
2023/02/19 08:18:39;;;;;;;55.50;32.30;;;;;;;9.38;82.59;93534.06;5069240;28;20040;-72
2023/02/19 08:21:10;;;;;;;44.30;25.83;;;;;;;9.80;78.00;93562.94;5068428;28;20047;-72
2023/02/19 08:23:37;;;;;;;38.53;21.00;;;;;;;9.92;77.19;93573.44;5068598;28;20409;-71
2023/02/19 08:26:05;;;;;;;39.95;21.98;;;;;;;9.76;74.88;93539.47;5069464;28;20056;-71
2023/02/19 08:28:33;;;;;;;45.10;24.45;;;;;;;10.00;73.36;93572.47;5069562;28;20048;-71
2023/02/19 08:31:03;;;;;;;32.33;17.63;;;;;;;10.23;71.41;93559.22;5059608;28;20120;-71
2023/02/19 08:33:30;;;;;;;35.10;19.08;;;;;;;10.34;72.00;93555.28;5070603;28;20504;-71
2023/02/19 08:36:03;;;;;;;26.92;16.13;;;;;;;10.35;72.29;93518.31;5064774;28;20049;-70
2023/02/19 08:38:30;;;;;;;20.63;10.40;;;;;;;10.74;67.06;93546.72;5058187;28;20061;-70
2023/02/19 08:40:57;;;;;;;16.73;8.48;;;;;;;11.01;73.57;93554.34;5070448;28;20101;-70
2023/02/19 08:43:24;;;;;;;23.27;10.95;;;;;;;11.21;65.86;93559.41;5070460;28;20560;-71
2023/02/19 08:45:54;;;;;;;12.20;6.30;;;;;;;11.20;67.08;93544.97;5070892;28;20484;-70
2023/02/19 08:48:22;;;;;;;12.25;6.75;;;;;;;11.32;63.12;93549.47;5070191;28;20060;-71
2023/02/19 08:50:57;;;;;;;12.32;6.68;;;;;;;11.30;64.87;93534.22;5070545;28;20040;-70
2023/02/19 08:53:24;;;;;;;11.35;5.20;;;;;;;11.21;64.55;93541.41;5070346;28;20090;-70
2023/02/19 08:55:52;;;;;;;9.82;5.90;;;;;;;11.42;65.71;93536.97;5069688;28;20471;-70
2023/02/19 08:58:18;;;;;;;6.88;3.90;;;;;;;11.51;61.98;93529.78;5069348;28;20861;-71
2023/02/19 09:00:45;;;;;;;6.90;4.03;;;;;;;11.59;63.17;93531.31;5068730;28;20094;-70
2023/02/19 09:03:12;;;;;;;9.35;4.88;;;;;;;11.69;66.89;93529.09;5068771;28;20049;-71
2023/02/19 09:05:41;;;;;;;8.02;4.07;;;;;;;11.93;68.46;93529.31;5068791;28;20929;-70
2023/02/19 09:08:08;;;;;;;10.02;4.60;;;;;;;12.02;61.42;93524.69;5069156;28;20413;-71
2023/02/19 09:10:35;;;;;;;9.40;6.00;;;;;;;12.12;61.52;93508.78;5068767;28;20040;-71
2023/02/19 09:13:02;;;;;;;9.10;4.82;;;;;;;12.33;61.59;93514.53;5068424;28;20570;-71
2023/02/19 09:15:29;;;;;;;12.57;5.80;;;;;;;12.53;61.41;93509.19;5068295;28;20063;-71
2023/02/19 09:17:56;;;;;;;16.55;5.82;;;;;;;12.76;64.60;93505.97;5067949;28;20560;-71
2023/02/19 09:20:22;;;;;;;10.75;6.00;;;;;;;12.99;59.17;93486.47;5068252;28;20102;-71
2023/02/19 09:22:56;;;;;;;11.43;5.70;;;;;;;13.26;59.15;93491.31;5069067;28;20044;-72
2023/02/19 09:25:22;;;;;;;23.00;7.45;;;;;;;13.41;61.34;93496.06;5068367;28;20124;-72
2023/02/19 09:27:49;;;;;;;10.52;5.80;;;;;;;13.44;55.34;93502.56;5068756;28;20044;-72
2023/02/19 09:30:16;;;;;;;9.27;4.88;;;;;;;13.27;57.61;93498.03;5067502;28;20044;-71
2023/02/19 09:32:42;;;;;;;10.43;6.07;;;;;;;13.17;57.20;93495.19;5068371;28;20052;-71
2023/02/19 09:35:09;;;;;;;10.20;5.25;;;;;;;13.39;57.67;93492.94;5056961;28;20118;-71
2023/02/19 09:37:36;;;;;;;19.20;8.65;;;;;;;13.65;55.25;93490.22;5066774;28;20496;-71
2023/02/19 09:40:04;;;;;;;15.75;7.97;;;;;;;13.84;54.12;93489.09;5068894;28;20122;-71
2023/02/19 09:42:33;;;;;;;12.45;6.65;;;;;;;14.10;60.27;93489.69;5068566;28;20052;-71
2023/02/19 09:45:04;;;;;;;132.95;62.88;;;;;;;14.39;58.37;93473.50;5068671;28;20106;-71
2023/02/19 09:47:34;;;;;;;17.05;8.50;;;;;;;14.64;54.70;93475.06;5068697;28;20048;-71
2023/02/19 09:50:05;;;;;;;15.13;6.78;;;;;;;14.85;54.85;93471.09;5068030;28;20049;-71
2023/02/19 09:52:36;;;;;;;8.10;4.63;;;;;;;14.98;50.97;93469.25;5068796;28;20109;-71
2023/02/19 09:55:14;;;;;;;51.42;22.55;;;;;;;15.12;54.47;93449.84;5068602;28;20109;-71
2023/02/19 09:57:41;;;;;;;14.82;7.05;;;;;;;15.31;53.62;93431.53;5068164;28;20048;-71
2023/02/19 10:00:21;;;;;;;9.48;4.43;;;;;;;15.32;53.77;93436.47;5068664;28;20045;-71
2023/02/19 10:02:51;;;;;;;5.10;2.85;;;;;;;15.39;51.51;93423.41;5068807;28;20063;-71
2023/02/19 10:05:18;;;;;;;24.63;11.07;;;;;;;15.57;52.35;93434.53;5042197;28;20053;-70
2023/02/19 10:07:47;;;;;;;23.83;11.23;;;;;;;15.52;48.43;93432.66;5070694;28;20045;-71
2023/02/19 10:10:29;;;;;;;85.50;30.95;;;;;;;15.59;52.32;93422.13;5071936;28;20567;-71
2023/02/19 10:13:02;;;;;;;26.08;11.68;;;;;;;15.48;50.03;93398.69;5071909;28;20094;-71
2023/02/19 10:15:33;;;;;;;11.80;4.47;;;;;;;15.76;49.70;93419.56;5071792;28;20040;-71
2023/02/19 10:18:00;;;;;;;42.47;14.27;;;;;;;15.88;51.85;93415.06;5072059;28;20482;-69
2023/02/19 10:20:27;;;;;;;16.88;6.28;;;;;;;15.84;51.53;93405.44;5071700;28;20451;-68
2023/02/19 10:23:00;;;;;;;10.95;4.43;;;;;;;16.05;52.44;93400.56;5072210;28;20055;-69
2023/02/19 10:25:29;;;;;;;4.40;2.65;;;;;;;15.66;47.50;93404.66;5071558;28;20547;-69
2023/02/19 10:27:58;;;;;;;10.30;3.85;;;;;;;15.74;52.13;93388.72;5072253;28;20094;-69
2023/02/19 10:30:28;;;;;;;23.83;10.95;;;;;;;15.89;47.70;93395.91;5061164;28;20447;-69
2023/02/19 10:33:00;;;;;;;18.88;6.75;;;;;;;16.03;49.86;93383.44;5071746;28;20546;-68
2023/02/19 10:35:28;;;;;;;4.82;2.50;;;;;;;16.05;45.28;93375.44;5070009;28;20098;-68
2023/02/19 10:37:55;;;;;;;91.53;32.85;;;;;;;15.91;50.10;93372.38;5064100;28;20137;-67
2023/02/19 10:40:25;;;;;;;43.13;14.35;;;;;;;16.10;52.39;93372.91;5071054;28;20086;-68
2023/02/19 10:42:57;;;;;;;9.57;4.55;;;;;;;16.17;48.84;93365.72;5071545;28;20543;-68
2023/02/19 10:45:28;;;;;;;5.20;3.03;;;;;;;16.19;50.06;93357.72;5047153;28;20120;-68
2023/02/19 10:47:56;;;;;;;11.43;5.57;;;;;;;16.38;50.31;93362.63;5071382;28;20412;-68
2023/02/19 10:50:28;;;;;;;4.82;2.70;;;;;;;16.45;46.91;93352.03;5071466;28;20041;-68
2023/02/19 10:52:57;;;;;;;6.18;2.85;;;;;;;16.50;47.67;93347.72;5071011;28;20830;-68
2023/02/19 10:55:31;;;;;;;50.92;20.27;;;;;;;16.67;49.34;93346.84;5071469;28;20048;-68
2023/02/19 10:58:21;;;;;;;52.22;21.73;;;;;;;16.68;49.02;93345.81;5071231;28;20041;-68
2023/02/19 11:00:48;;;;;;;100.38;33.65;;;;;;;16.76;48.21;93339.41;5057906;28;20102;-68
2023/02/19 11:03:20;;;;;;;7.70;3.78;;;;;;;16.55;44.01;93334.00;5070803;28;20090;-68
2023/02/19 11:05:55;;;;;;;34.13;11.82;;;;;;;16.73;46.13;93316.53;5070153;28;20075;-68
2023/02/19 11:08:23;;;;;;;8.52;3.35;;;;;;;16.89;46.94;93325.28;5069779;28;20057;-68
2023/02/19 11:10:50;;;;;;;41.35;11.82;;;;;;;16.85;47.09;93313.81;5069872;28;20067;-68
2023/02/19 11:13:24;;;;;;;15.00;6.80;;;;;;;16.73;46.87;93313.94;5069900;28;20056;-68
2023/02/19 11:15:52;;;;;;;5.43;2.72;;;;;;;16.73;46.41;93308.75;5070780;28;21036;-69
2023/02/19 11:18:23;;;;;;;11.70;4.10;;;;;;;16.86;45.34;93292.81;5069813;28;20594;-68
2023/02/19 11:20:53;;;;;;;16.08;4.75;;;;;;;16.80;45.29;93288.63;5070689;28;20040;-68
2023/02/19 11:23:27;;;;;;;72.55;22.73;;;;;;;16.82;45.38;93294.34;5070942;28;20074;-69
2023/02/19 11:25:56;;;;;;;96.18;32.78;;;;;;;16.89;45.57;93292.31;5070063;28;20094;-69
2023/02/19 11:28:31;;;;;;;8.95;4.40;;;;;;;16.99;45.61;93283.81;5070773;28;20397;-68
2023/02/19 11:31:15;;;;;;;7.03;2.92;;;;;;;17.07;45.22;93285.22;5060706;28;20072;-68
2023/02/19 11:33:47;;;;;;;11.32;4.95;;;;;;;17.15;45.65;93279.56;5070030;28;20526;-69
2023/02/19 11:36:26;;;;;;;13.52;6.03;;;;;;;17.25;45.77;93273.66;5064433;28;20496;-69
2023/02/19 11:38:53;;;;;;;11.95;4.57;;;;;;;17.19;44.02;93259.09;5070795;28;20412;-68
2023/02/19 11:41:45;;;;;;;11.88;5.65;;;;;;;17.38;44.72;93261.28;5070344;28;20044;-69
2023/02/19 11:44:29;;;;;;;7.40;3.42;;;;;;;17.43;44.58;93256.91;5070231;28;20045;-69
2023/02/19 11:47:05;;;;;;;8.18;4.20;;;;;;;17.55;44.64;93261.91;5070193;28;20091;-68
2023/02/19 11:49:43;;;;;;;6.00;3.10;;;;;;;17.42;44.12;93228.59;5070348;28;20040;-68
2023/02/19 11:52:32;;;;;;;5.07;2.55;;;;;;;17.60;43.43;93245.56;5070317;28;20048;-68
2023/02/19 11:55:07;;;;;;;7.45;4.03;;;;;;;17.40;43.61;93248.84;5070655;28;20110;-68